sensor_id;sensor_type;location;lat;lon;timestamp;temperature;humidity
33715;DHT22;20043;50.998;4.754;2023-07-22T00:00:41;16.10;99.90
33715;DHT22;20043;50.998;4.754;2023-07-22T00:03:07;16.20;99.90
33715;DHT22;20043;50.998;4.754;2023-07-22T00:05:32;16.10;99.90
33715;DHT22;20043;50.998;4.754;2023-07-22T00:07:58;16.10;99.90
33715;DHT22;20043;50.998;4.754;2023-07-22T00:10:23;16.20;99.90
33715;DHT22;20043;50.998;4.754;2023-07-22T00:12:49;16.10;99.90
33715;DHT22;20043;50.998;4.754;2023-07-22T00:15:14;16.10;99.90
33715;DHT22;20043;50.998;4.754;2023-07-22T00:17:41;16.00;99.90
33715;DHT22;20043;50.998;4.754;2023-07-22T00:20:07;16.00;99.90
33715;DHT22;20043;50.998;4.754;2023-07-22T00:22:37;16.00;99.90
33715;DHT22;20043;50.998;4.754;2023-07-22T00:25:11;16.10;99.90
33715;DHT22;20043;50.998;4.754;2023-07-22T00:27:41;16.10;99.90
33715;DHT22;20043;50.998;4.754;2023-07-22T00:30:07;16.20;99.90
33715;DHT22;20043;50.998;4.754;2023-07-22T00:32:33;16.20;99.90
33715;DHT22;20043;50.998;4.754;2023-07-22T00:34:59;16.30;99.90
33715;DHT22;20043;50.998;4.754;2023-07-22T00:37:24;16.30;99.90
33715;DHT22;20043;50.998;4.754;2023-07-22T00:39:51;16.30;99.90
33715;DHT22;20043;50.998;4.754;2023-07-22T00:42:16;16.40;99.90
33715;DHT22;20043;50.998;4.754;2023-07-22T00:44:42;16.40;99.90
33715;DHT22;20043;50.998;4.754;2023-07-22T00:47:08;16.50;99.90
33715;DHT22;20043;50.998;4.754;2023-07-22T00:49:34;16.30;99.90
33715;DHT22;20043;50.998;4.754;2023-07-22T00:52:02;16.40;99.90
33715;DHT22;20043;50.998;4.754;2023-07-22T00:54:29;16.40;99.90
33715;DHT22;20043;50.998;4.754;2023-07-22T00:56:55;16.40;99.90
33715;DHT22;20043;50.998;4.754;2023-07-22T00:59:21;16.30;99.90
33715;DHT22;20043;50.998;4.754;2023-07-22T01:01:47;16.40;99.90
33715;DHT22;20043;50.998;4.754;2023-07-22T01:04:14;16.30;99.90
33715;DHT22;20043;50.998;4.754;2023-07-22T01:06:40;16.30;99.90
33715;DHT22;20043;50.998;4.754;2023-07-22T01:09:06;16.30;99.90
33715;DHT22;20043;50.998;4.754;2023-07-22T01:11:32;16.40;99.90
33715;DHT22;20043;50.998;4.754;2023-07-22T01:13:58;16.50;99.90
33715;DHT22;20043;50.998;4.754;2023-07-22T01:16:26;16.60;99.90
33715;DHT22;20043;50.998;4.754;2023-07-22T01:18:53;16.70;99.90
33715;DHT22;20043;50.998;4.754;2023-07-22T01:21:19;16.80;99.90
33715;DHT22;20043;50.998;4.754;2023-07-22T01:23:46;16.80;99.90
33715;DHT22;20043;50.998;4.754;2023-07-22T01:26:12;16.80;99.90
33715;DHT22;20043;50.998;4.754;2023-07-22T01:28:38;16.90;99.90
33715;DHT22;20043;50.998;4.754;2023-07-22T01:31:04;16.90;99.90
33715;DHT22;20043;50.998;4.754;2023-07-22T01:33:31;16.80;99.90
33715;DHT22;20043;50.998;4.754;2023-07-22T01:35:58;16.80;99.90
33715;DHT22;20043;50.998;4.754;2023-07-22T01:38:23;16.70;99.90
33715;DHT22;20043;50.998;4.754;2023-07-22T01:40:49;16.70;99.90
33715;DHT22;20043;50.998;4.754;2023-07-22T01:43:15;16.90;99.90
33715;DHT22;20043;50.998;4.754;2023-07-22T01:45:40;16.90;99.90
33715;DHT22;20043;50.998;4.754;2023-07-22T01:48:07;16.90;99.90
33715;DHT22;20043;50.998;4.754;2023-07-22T01:50:32;16.90;99.90
33715;DHT22;20043;50.998;4.754;2023-07-22T01:52:58;16.90;99.90
33715;DHT22;20043;50.998;4.754;2023-07-22T01:55:23;16.80;99.90
33715;DHT22;20043;50.998;4.754;2023-07-22T01:57:49;16.80;99.90
33715;DHT22;20043;50.998;4.754;2023-07-22T02:00:14;16.80;99.90
33715;DHT22;20043;50.998;4.754;2023-07-22T02:02:41;16.60;99.90
33715;DHT22;20043;50.998;4.754;2023-07-22T02:05:07;16.60;99.90
33715;DHT22;20043;50.998;4.754;2023-07-22T02:07:35;16.50;99.90
33715;DHT22;20043;50.998;4.754;2023-07-22T02:10:00;16.50;99.90
33715;DHT22;20043;50.998;4.754;2023-07-22T02:12:26;16.50;99.90
33715;DHT22;20043;50.998;4.754;2023-07-22T02:14:52;16.50;99.90
33715;DHT22;20043;50.998;4.754;2023-07-22T02:17:17;16.40;99.90
33715;DHT22;20043;50.998;4.754;2023-07-22T02:19:43;16.50;99.90
33715;DHT22;20043;50.998;4.754;2023-07-22T02:22:09;16.60;99.90
33715;DHT22;20043;50.998;4.754;2023-07-22T02:24:34;16.50;99.90
33715;DHT22;20043;50.998;4.754;2023-07-22T02:27:00;16.40;99.90
33715;DHT22;20043;50.998;4.754;2023-07-22T02:29:26;16.40;99.90
33715;DHT22;20043;50.998;4.754;2023-07-22T02:31:51;16.30;99.90
33715;DHT22;20043;50.998;4.754;2023-07-22T02:34:17;16.30;99.90
33715;DHT22;20043;50.998;4.754;2023-07-22T02:36:42;16.20;99.90
33715;DHT22;20043;50.998;4.754;2023-07-22T02:39:08;16.10;99.90
33715;DHT22;20043;50.998;4.754;2023-07-22T02:41:36;16.20;99.90
33715;DHT22;20043;50.998;4.754;2023-07-22T02:44:02;16.20;99.90
33715;DHT22;20043;50.998;4.754;2023-07-22T02:46:28;16.20;99.90
33715;DHT22;20043;50.998;4.754;2023-07-22T02:48:54;16.20;99.90
33715;DHT22;20043;50.998;4.754;2023-07-22T02:51:20;16.20;99.90
33715;DHT22;20043;50.998;4.754;2023-07-22T02:53:46;16.20;99.90
33715;DHT22;20043;50.998;4.754;2023-07-22T02:56:12;16.20;99.90
33715;DHT22;20043;50.998;4.754;2023-07-22T02:58:38;16.20;99.90
33715;DHT22;20043;50.998;4.754;2023-07-22T03:01:04;16.10;99.90
33715;DHT22;20043;50.998;4.754;2023-07-22T03:03:30;16.10;99.90
33715;DHT22;20043;50.998;4.754;2023-07-22T03:05:59;16.00;99.90
33715;DHT22;20043;50.998;4.754;2023-07-22T03:08:24;15.90;99.90
33715;DHT22;20043;50.998;4.754;2023-07-22T03:10:50;15.80;99.90
33715;DHT22;20043;50.998;4.754;2023-07-22T03:13:16;15.80;99.90
33715;DHT22;20043;50.998;4.754;2023-07-22T03:15:42;15.70;99.90
33715;DHT22;20043;50.998;4.754;2023-07-22T03:18:08;15.70;99.90
33715;DHT22;20043;50.998;4.754;2023-07-22T03:20:38;15.80;99.90
33715;DHT22;20043;50.998;4.754;2023-07-22T03:23:05;15.70;99.90
33715;DHT22;20043;50.998;4.754;2023-07-22T03:25:32;15.80;99.90
33715;DHT22;20043;50.998;4.754;2023-07-22T03:28:02;15.70;99.90
33715;DHT22;20043;50.998;4.754;2023-07-22T03:30:28;15.70;99.90
33715;DHT22;20043;50.998;4.754;2023-07-22T03:32:54;15.80;99.90
33715;DHT22;20043;50.998;4.754;2023-07-22T03:35:19;15.90;99.90
33715;DHT22;20043;50.998;4.754;2023-07-22T03:37:45;15.90;99.90
33715;DHT22;20043;50.998;4.754;2023-07-22T03:40:11;15.90;99.90
33715;DHT22;20043;50.998;4.754;2023-07-22T03:42:39;15.80;99.90
33715;DHT22;20043;50.998;4.754;2023-07-22T03:45:05;15.80;99.90
33715;DHT22;20043;50.998;4.754;2023-07-22T03:47:32;15.80;99.90
33715;DHT22;20043;50.998;4.754;2023-07-22T03:49:57;15.80;99.90
33715;DHT22;20043;50.998;4.754;2023-07-22T03:52:23;15.70;99.90
33715;DHT22;20043;50.998;4.754;2023-07-22T03:54:49;15.80;99.90
33715;DHT22;20043;50.998;4.754;2023-07-22T03:57:14;15.70;99.90
33715;DHT22;20043;50.998;4.754;2023-07-22T03:59:40;15.60;99.90
33715;DHT22;20043;50.998;4.754;2023-07-22T04:02:05;15.60;99.90
33715;DHT22;20043;50.998;4.754;2023-07-22T04:04:31;15.50;99.90
33715;DHT22;20043;50.998;4.754;2023-07-22T04:06:57;15.50;99.90
33715;DHT22;20043;50.998;4.754;2023-07-22T04:09:22;15.50;99.90
33715;DHT22;20043;50.998;4.754;2023-07-22T04:11:48;15.50;99.90
33715;DHT22;20043;50.998;4.754;2023-07-22T04:14:14;15.40;99.90
33715;DHT22;20043;50.998;4.754;2023-07-22T04:16:40;15.50;99.90
33715;DHT22;20043;50.998;4.754;2023-07-22T04:19:05;15.40;99.90
33715;DHT22;20043;50.998;4.754;2023-07-22T04:21:38;15.40;99.90
33715;DHT22;20043;50.998;4.754;2023-07-22T04:24:03;15.40;99.90
33715;DHT22;20043;50.998;4.754;2023-07-22T04:26:29;15.30;99.90
33715;DHT22;20043;50.998;4.754;2023-07-22T04:28:55;15.20;99.90
33715;DHT22;20043;50.998;4.754;2023-07-22T04:31:21;15.10;99.90
33715;DHT22;20043;50.998;4.754;2023-07-22T04:33:47;15.10;99.90
33715;DHT22;20043;50.998;4.754;2023-07-22T04:36:12;15.20;99.90
33715;DHT22;20043;50.998;4.754;2023-07-22T04:38:38;15.10;99.90
33715;DHT22;20043;50.998;4.754;2023-07-22T04:41:04;15.10;99.90
33715;DHT22;20043;50.998;4.754;2023-07-22T04:43:36;15.10;99.90
33715;DHT22;20043;50.998;4.754;2023-07-22T04:46:01;15.10;99.90
33715;DHT22;20043;50.998;4.754;2023-07-22T04:48:27;15.20;99.90
33715;DHT22;20043;50.998;4.754;2023-07-22T04:50:53;15.30;99.90
33715;DHT22;20043;50.998;4.754;2023-07-22T04:53:19;15.30;99.90
33715;DHT22;20043;50.998;4.754;2023-07-22T04:55:44;15.30;99.90
33715;DHT22;20043;50.998;4.754;2023-07-22T04:58:10;15.30;99.90
33715;DHT22;20043;50.998;4.754;2023-07-22T05:00:39;15.40;99.90
33715;DHT22;20043;50.998;4.754;2023-07-22T05:03:05;15.50;99.90
33715;DHT22;20043;50.998;4.754;2023-07-22T05:05:31;15.70;99.90
33715;DHT22;20043;50.998;4.754;2023-07-22T05:07:57;15.50;99.90
33715;DHT22;20043;50.998;4.754;2023-07-22T05:10:23;15.60;99.90
33715;DHT22;20043;50.998;4.754;2023-07-22T05:12:48;15.50;99.90
33715;DHT22;20043;50.998;4.754;2023-07-22T05:15:14;15.50;99.90
33715;DHT22;20043;50.998;4.754;2023-07-22T05:17:40;15.50;99.90
33715;DHT22;20043;50.998;4.754;2023-07-22T05:20:06;15.50;99.90
33715;DHT22;20043;50.998;4.754;2023-07-22T05:22:35;15.50;99.90
33715;DHT22;20043;50.998;4.754;2023-07-22T05:25:01;15.50;99.90
33715;DHT22;20043;50.998;4.754;2023-07-22T05:27:27;15.60;99.90
33715;DHT22;20043;50.998;4.754;2023-07-22T05:29:52;15.60;99.90
33715;DHT22;20043;50.998;4.754;2023-07-22T05:32:18;15.50;99.90
33715;DHT22;20043;50.998;4.754;2023-07-22T05:34:43;15.60;99.90
33715;DHT22;20043;50.998;4.754;2023-07-22T05:37:09;15.60;99.90
33715;DHT22;20043;50.998;4.754;2023-07-22T05:39:34;15.60;99.90
33715;DHT22;20043;50.998;4.754;2023-07-22T05:42:00;15.60;99.90
33715;DHT22;20043;50.998;4.754;2023-07-22T05:44:25;15.70;99.90
33715;DHT22;20043;50.998;4.754;2023-07-22T05:46:51;15.70;99.90
33715;DHT22;20043;50.998;4.754;2023-07-22T05:49:17;15.70;99.90
33715;DHT22;20043;50.998;4.754;2023-07-22T05:51:42;15.80;99.90
33715;DHT22;20043;50.998;4.754;2023-07-22T05:54:08;16.00;99.90
33715;DHT22;20043;50.998;4.754;2023-07-22T05:56:33;16.30;99.90
33715;DHT22;20043;50.998;4.754;2023-07-22T05:58:59;16.70;99.90
33715;DHT22;20043;50.998;4.754;2023-07-22T06:01:25;17.10;99.90
33715;DHT22;20043;50.998;4.754;2023-07-22T06:03:51;17.50;99.90
33715;DHT22;20043;50.998;4.754;2023-07-22T06:06:17;17.80;99.90
33715;DHT22;20043;50.998;4.754;2023-07-22T06:08:42;18.10;99.90
33715;DHT22;20043;50.998;4.754;2023-07-22T06:11:08;18.50;99.90
33715;DHT22;20043;50.998;4.754;2023-07-22T06:13:33;18.50;99.90
33715;DHT22;20043;50.998;4.754;2023-07-22T06:15:59;18.70;99.90
33715;DHT22;20043;50.998;4.754;2023-07-22T06:18:25;18.90;99.90
33715;DHT22;20043;50.998;4.754;2023-07-22T06:20:50;19.00;99.90
33715;DHT22;20043;50.998;4.754;2023-07-22T06:23:16;19.10;99.90
33715;DHT22;20043;50.998;4.754;2023-07-22T06:25:42;19.10;99.90
33715;DHT22;20043;50.998;4.754;2023-07-22T06:28:08;19.00;99.90
33715;DHT22;20043;50.998;4.754;2023-07-22T06:30:34;19.00;99.90
33715;DHT22;20043;50.998;4.754;2023-07-22T06:32:59;19.00;99.90
33715;DHT22;20043;50.998;4.754;2023-07-22T06:35:25;19.10;99.90
33715;DHT22;20043;50.998;4.754;2023-07-22T06:37:50;19.20;99.90
33715;DHT22;20043;50.998;4.754;2023-07-22T06:40:16;19.30;99.90
33715;DHT22;20043;50.998;4.754;2023-07-22T06:42:42;19.20;99.90
33715;DHT22;20043;50.998;4.754;2023-07-22T06:45:08;18.90;99.90
33715;DHT22;20043;50.998;4.754;2023-07-22T06:47:33;18.70;99.90
33715;DHT22;20043;50.998;4.754;2023-07-22T06:50:00;18.60;99.90
33715;DHT22;20043;50.998;4.754;2023-07-22T06:52:25;18.50;99.90
33715;DHT22;20043;50.998;4.754;2023-07-22T06:54:51;18.40;99.90
33715;DHT22;20043;50.998;4.754;2023-07-22T06:57:16;18.30;99.90
33715;DHT22;20043;50.998;4.754;2023-07-22T06:59:42;18.20;99.90
33715;DHT22;20043;50.998;4.754;2023-07-22T07:02:08;18.10;99.90
33715;DHT22;20043;50.998;4.754;2023-07-22T07:04:34;18.10;99.90
33715;DHT22;20043;50.998;4.754;2023-07-22T07:06:59;18.10;99.90
33715;DHT22;20043;50.998;4.754;2023-07-22T07:09:25;18.00;99.90
33715;DHT22;20043;50.998;4.754;2023-07-22T07:11:51;18.00;99.90
33715;DHT22;20043;50.998;4.754;2023-07-22T07:14:17;18.10;99.90
33715;DHT22;20043;50.998;4.754;2023-07-22T07:16:43;18.00;99.90
33715;DHT22;20043;50.998;4.754;2023-07-22T07:19:10;18.10;99.90
33715;DHT22;20043;50.998;4.754;2023-07-22T07:21:36;18.30;99.90
33715;DHT22;20043;50.998;4.754;2023-07-22T07:24:01;18.50;99.90
33715;DHT22;20043;50.998;4.754;2023-07-22T07:26:27;18.60;99.90
33715;DHT22;20043;50.998;4.754;2023-07-22T07:28:53;18.60;99.90
33715;DHT22;20043;50.998;4.754;2023-07-22T07:31:26;18.70;99.90
33715;DHT22;20043;50.998;4.754;2023-07-22T07:33:52;18.70;99.90
33715;DHT22;20043;50.998;4.754;2023-07-22T07:36:18;18.60;99.90
33715;DHT22;20043;50.998;4.754;2023-07-22T07:38:43;18.60;99.90
33715;DHT22;20043;50.998;4.754;2023-07-22T07:41:10;18.70;99.90
33715;DHT22;20043;50.998;4.754;2023-07-22T07:43:40;18.60;99.90
33715;DHT22;20043;50.998;4.754;2023-07-22T07:48:43;18.50;99.90
33715;DHT22;20043;50.998;4.754;2023-07-22T07:51:10;18.50;99.90
33715;DHT22;20043;50.998;4.754;2023-07-22T07:53:35;18.50;99.90
33715;DHT22;20043;50.998;4.754;2023-07-22T07:56:01;18.50;99.90
33715;DHT22;20043;50.998;4.754;2023-07-22T07:58:26;18.60;99.90
33715;DHT22;20043;50.998;4.754;2023-07-22T08:00:52;18.50;99.90
33715;DHT22;20043;50.998;4.754;2023-07-22T08:03:18;18.50;99.90
33715;DHT22;20043;50.998;4.754;2023-07-22T08:05:43;18.50;99.90
33715;DHT22;20043;50.998;4.754;2023-07-22T08:08:09;18.50;99.90
33715;DHT22;20043;50.998;4.754;2023-07-22T08:10:35;18.60;99.90
33715;DHT22;20043;50.998;4.754;2023-07-22T08:13:01;18.80;99.90
33715;DHT22;20043;50.998;4.754;2023-07-22T08:15:27;18.90;99.90
33715;DHT22;20043;50.998;4.754;2023-07-22T08:17:53;19.00;99.90
33715;DHT22;20043;50.998;4.754;2023-07-22T08:20:19;19.10;99.90
33715;DHT22;20043;50.998;4.754;2023-07-22T08:22:44;18.90;99.90
33715;DHT22;20043;50.998;4.754;2023-07-22T08:25:10;18.80;99.90
33715;DHT22;20043;50.998;4.754;2023-07-22T08:27:35;18.80;99.90
33715;DHT22;20043;50.998;4.754;2023-07-22T08:30:01;18.70;99.90
33715;DHT22;20043;50.998;4.754;2023-07-22T08:32:26;18.70;99.90
33715;DHT22;20043;50.998;4.754;2023-07-22T08:34:52;18.70;99.90
33715;DHT22;20043;50.998;4.754;2023-07-22T08:37:17;18.70;99.90
33715;DHT22;20043;50.998;4.754;2023-07-22T08:39:43;18.80;99.90
33715;DHT22;20043;50.998;4.754;2023-07-22T08:42:09;18.80;99.90
33715;DHT22;20043;50.998;4.754;2023-07-22T08:44:38;18.90;99.90
33715;DHT22;20043;50.998;4.754;2023-07-22T08:47:07;19.00;99.90
33715;DHT22;20043;50.998;4.754;2023-07-22T08:49:35;19.10;99.90
33715;DHT22;20043;50.998;4.754;2023-07-22T08:52:01;19.10;99.90
33715;DHT22;20043;50.998;4.754;2023-07-22T08:54:27;19.00;99.90
33715;DHT22;20043;50.998;4.754;2023-07-22T08:56:54;19.10;99.90
33715;DHT22;20043;50.998;4.754;2023-07-22T08:59:21;19.40;99.90
33715;DHT22;20043;50.998;4.754;2023-07-22T09:01:48;19.50;99.90
33715;DHT22;20043;50.998;4.754;2023-07-22T09:04:14;19.60;99.90
33715;DHT22;20043;50.998;4.754;2023-07-22T09:06:41;19.70;99.90
33715;DHT22;20043;50.998;4.754;2023-07-22T09:09:07;19.80;99.90
33715;DHT22;20043;50.998;4.754;2023-07-22T09:11:34;19.80;99.90
33715;DHT22;20043;50.998;4.754;2023-07-22T09:14:02;19.80;99.90
33715;DHT22;20043;50.998;4.754;2023-07-22T09:16:30;19.90;99.90
33715;DHT22;20043;50.998;4.754;2023-07-22T09:18:58;20.00;99.90
33715;DHT22;20043;50.998;4.754;2023-07-22T09:21:23;20.10;99.90
33715;DHT22;20043;50.998;4.754;2023-07-22T09:23:49;20.20;99.90
33715;DHT22;20043;50.998;4.754;2023-07-22T09:26:16;20.40;99.90
33715;DHT22;20043;50.998;4.754;2023-07-22T09:31:20;20.60;99.90
33715;DHT22;20043;50.998;4.754;2023-07-22T09:33:45;20.50;99.90
33715;DHT22;20043;50.998;4.754;2023-07-22T09:36:11;20.50;99.90
33715;DHT22;20043;50.998;4.754;2023-07-22T09:38:37;20.70;99.90
33715;DHT22;20043;50.998;4.754;2023-07-22T09:41:03;21.00;99.90
33715;DHT22;20043;50.998;4.754;2023-07-22T09:43:30;21.20;99.90
33715;DHT22;20043;50.998;4.754;2023-07-22T09:45:55;21.40;99.90
33715;DHT22;20043;50.998;4.754;2023-07-22T09:48:22;21.50;99.90
33715;DHT22;20043;50.998;4.754;2023-07-22T09:50:56;21.30;99.90
33715;DHT22;20043;50.998;4.754;2023-07-22T09:53:22;21.30;99.90
33715;DHT22;20043;50.998;4.754;2023-07-22T09:55:48;21.20;99.90
33715;DHT22;20043;50.998;4.754;2023-07-22T09:58:17;21.30;99.90
33715;DHT22;20043;50.998;4.754;2023-07-22T10:00:48;21.70;99.90
33715;DHT22;20043;50.998;4.754;2023-07-22T10:03:16;21.60;99.90
33715;DHT22;20043;50.998;4.754;2023-07-22T10:05:45;21.50;99.90
33715;DHT22;20043;50.998;4.754;2023-07-22T10:08:18;21.40;99.90
33715;DHT22;20043;50.998;4.754;2023-07-22T10:10:45;21.10;99.90
33715;DHT22;20043;50.998;4.754;2023-07-22T10:13:11;21.00;99.90
33715;DHT22;20043;50.998;4.754;2023-07-22T10:15:36;21.00;99.90
33715;DHT22;20043;50.998;4.754;2023-07-22T10:18:03;21.30;99.90
33715;DHT22;20043;50.998;4.754;2023-07-22T10:20:30;21.40;99.90
33715;DHT22;20043;50.998;4.754;2023-07-22T10:22:56;21.40;99.90
33715;DHT22;20043;50.998;4.754;2023-07-22T10:25:23;21.40;99.90
33715;DHT22;20043;50.998;4.754;2023-07-22T10:27:51;21.40;99.90
33715;DHT22;20043;50.998;4.754;2023-07-22T10:30:17;21.60;99.90
33715;DHT22;20043;50.998;4.754;2023-07-22T10:32:48;21.70;99.90
33715;DHT22;20043;50.998;4.754;2023-07-22T10:38:13;21.70;99.90
33715;DHT22;20043;50.998;4.754;2023-07-22T10:40:54;21.90;99.90
33715;DHT22;20043;50.998;4.754;2023-07-22T10:43:27;22.00;99.90
33715;DHT22;20043;50.998;4.754;2023-07-22T10:45:55;21.80;99.90
33715;DHT22;20043;50.998;4.754;2023-07-22T10:48:34;21.80;99.90
33715;DHT22;20043;50.998;4.754;2023-07-22T10:51:13;21.90;99.90
33715;DHT22;20043;50.998;4.754;2023-07-22T10:53:45;21.80;99.90
33715;DHT22;20043;50.998;4.754;2023-07-22T10:56:21;22.10;99.90
33715;DHT22;20043;50.998;4.754;2023-07-22T11:01:22;22.40;99.90
33715;DHT22;20043;50.998;4.754;2023-07-22T11:04:10;22.60;99.90
33715;DHT22;20043;50.998;4.754;2023-07-22T11:11:54;22.90;99.90
33715;DHT22;20043;50.998;4.754;2023-07-22T11:14:23;22.70;99.90
33715;DHT22;20043;50.998;4.754;2023-07-22T11:16:50;22.60;99.90
33715;DHT22;20043;50.998;4.754;2023-07-22T11:19:21;22.40;99.90
33715;DHT22;20043;50.998;4.754;2023-07-22T11:21:48;22.10;99.90
33715;DHT22;20043;50.998;4.754;2023-07-22T11:24:15;22.10;99.90
33715;DHT22;20043;50.998;4.754;2023-07-22T11:26:41;22.40;99.90
33715;DHT22;20043;50.998;4.754;2023-07-22T11:29:08;22.60;99.90
33715;DHT22;20043;50.998;4.754;2023-07-22T11:31:36;22.80;99.90
33715;DHT22;20043;50.998;4.754;2023-07-22T11:34:03;22.80;99.90
33715;DHT22;20043;50.998;4.754;2023-07-22T11:36:29;22.80;99.90
33715;DHT22;20043;50.998;4.754;2023-07-22T11:39:05;22.90;99.90
33715;DHT22;20043;50.998;4.754;2023-07-22T11:41:32;23.00;99.90
33715;DHT22;20043;50.998;4.754;2023-07-22T11:43:58;22.70;99.90
33715;DHT22;20043;50.998;4.754;2023-07-22T11:46:25;22.80;99.90
33715;DHT22;20043;50.998;4.754;2023-07-22T11:48:52;23.00;99.90
33715;DHT22;20043;50.998;4.754;2023-07-22T11:51:25;23.10;99.90
33715;DHT22;20043;50.998;4.754;2023-07-22T11:53:52;23.10;99.90
33715;DHT22;20043;50.998;4.754;2023-07-22T11:56:26;23.20;99.90
33715;DHT22;20043;50.998;4.754;2023-07-22T11:58:56;23.30;99.90
33715;DHT22;20043;50.998;4.754;2023-07-22T12:01:22;23.40;99.90
33715;DHT22;20043;50.998;4.754;2023-07-22T12:03:49;23.10;99.90
33715;DHT22;20043;50.998;4.754;2023-07-22T12:06:20;23.10;99.90
33715;DHT22;20043;50.998;4.754;2023-07-22T12:08:47;23.30;99.90
33715;DHT22;20043;50.998;4.754;2023-07-22T12:11:18;23.60;99.90
33715;DHT22;20043;50.998;4.754;2023-07-22T12:13:44;23.60;99.90
33715;DHT22;20043;50.998;4.754;2023-07-22T12:16:23;23.70;99.90
33715;DHT22;20043;50.998;4.754;2023-07-22T12:18:50;23.70;99.90
33715;DHT22;20043;50.998;4.754;2023-07-22T12:21:16;23.60;99.90
33715;DHT22;20043;50.998;4.754;2023-07-22T12:23:42;23.70;99.90
33715;DHT22;20043;50.998;4.754;2023-07-22T12:26:08;23.80;99.90
33715;DHT22;20043;50.998;4.754;2023-07-22T12:28:34;23.60;99.90
33715;DHT22;20043;50.998;4.754;2023-07-22T12:31:00;23.50;99.90
33715;DHT22;20043;50.998;4.754;2023-07-22T12:33:26;23.60;99.90
33715;DHT22;20043;50.998;4.754;2023-07-22T12:35:56;23.80;99.90
33715;DHT22;20043;50.998;4.754;2023-07-22T12:38:32;24.20;99.90
33715;DHT22;20043;50.998;4.754;2023-07-22T12:40:58;24.40;99.90
33715;DHT22;20043;50.998;4.754;2023-07-22T12:43:24;24.20;99.90
33715;DHT22;20043;50.998;4.754;2023-07-22T12:45:49;24.00;99.90
33715;DHT22;20043;50.998;4.754;2023-07-22T12:48:16;23.60;99.90
33715;DHT22;20043;50.998;4.754;2023-07-22T12:50:43;23.30;99.90
33715;DHT22;20043;50.998;4.754;2023-07-22T12:53:08;23.30;99.90
33715;DHT22;20043;50.998;4.754;2023-07-22T12:55:34;23.40;99.90
33715;DHT22;20043;50.998;4.754;2023-07-22T12:57:59;23.60;99.90
33715;DHT22;20043;50.998;4.754;2023-07-22T13:00:25;23.80;99.90
33715;DHT22;20043;50.998;4.754;2023-07-22T13:02:51;24.10;99.90
33715;DHT22;20043;50.998;4.754;2023-07-22T13:05:17;24.00;99.90
33715;DHT22;20043;50.998;4.754;2023-07-22T13:07:43;24.20;99.90
33715;DHT22;20043;50.998;4.754;2023-07-22T13:10:09;24.40;99.90
33715;DHT22;20043;50.998;4.754;2023-07-22T13:12:39;24.40;99.90
33715;DHT22;20043;50.998;4.754;2023-07-22T13:15:05;24.40;99.90
33715;DHT22;20043;50.998;4.754;2023-07-22T13:17:31;24.30;99.90
33715;DHT22;20043;50.998;4.754;2023-07-22T13:19:57;24.30;99.90
33715;DHT22;20043;50.998;4.754;2023-07-22T13:22:22;24.30;99.90
33715;DHT22;20043;50.998;4.754;2023-07-22T13:24:48;24.50;99.90
33715;DHT22;20043;50.998;4.754;2023-07-22T13:27:13;24.60;99.90
33715;DHT22;20043;50.998;4.754;2023-07-22T13:29:39;24.70;99.90
33715;DHT22;20043;50.998;4.754;2023-07-22T13:32:05;24.60;99.90
33715;DHT22;20043;50.998;4.754;2023-07-22T13:34:31;24.30;99.90
33715;DHT22;20043;50.998;4.754;2023-07-22T13:36:57;24.10;99.90
33715;DHT22;20043;50.998;4.754;2023-07-22T13:39:23;24.00;99.90
33715;DHT22;20043;50.998;4.754;2023-07-22T13:41:48;23.80;99.90
33715;DHT22;20043;50.998;4.754;2023-07-22T13:44:14;23.90;99.90
33715;DHT22;20043;50.998;4.754;2023-07-22T13:46:40;24.00;99.90
33715;DHT22;20043;50.998;4.754;2023-07-22T13:49:05;24.00;99.90
33715;DHT22;20043;50.998;4.754;2023-07-22T13:51:31;24.00;99.90
33715;DHT22;20043;50.998;4.754;2023-07-22T13:53:56;23.70;99.90
33715;DHT22;20043;50.998;4.754;2023-07-22T13:56:24;23.50;99.90
33715;DHT22;20043;50.998;4.754;2023-07-22T13:58:49;23.30;99.90
33715;DHT22;20043;50.998;4.754;2023-07-22T14:01:15;23.20;99.90
33715;DHT22;20043;50.998;4.754;2023-07-22T14:03:41;23.10;99.90
33715;DHT22;20043;50.998;4.754;2023-07-22T14:06:07;23.10;99.90
33715;DHT22;20043;50.998;4.754;2023-07-22T14:08:33;23.00;99.90
33715;DHT22;20043;50.998;4.754;2023-07-22T14:10:59;23.10;99.90
33715;DHT22;20043;50.998;4.754;2023-07-22T14:13:25;23.20;99.90
33715;DHT22;20043;50.998;4.754;2023-07-22T14:15:50;23.10;99.90
33715;DHT22;20043;50.998;4.754;2023-07-22T14:18:16;23.20;99.90
33715;DHT22;20043;50.998;4.754;2023-07-22T14:20:43;23.20;99.90
33715;DHT22;20043;50.998;4.754;2023-07-22T14:23:09;23.10;99.90
33715;DHT22;20043;50.998;4.754;2023-07-22T14:25:35;22.90;99.90
33715;DHT22;20043;50.998;4.754;2023-07-22T14:28:00;22.90;99.90
33715;DHT22;20043;50.998;4.754;2023-07-22T14:30:32;22.90;99.90
33715;DHT22;20043;50.998;4.754;2023-07-22T14:32:58;22.80;99.90
33715;DHT22;20043;50.998;4.754;2023-07-22T14:35:24;22.70;99.90
33715;DHT22;20043;50.998;4.754;2023-07-22T14:37:49;22.50;99.90
33715;DHT22;20043;50.998;4.754;2023-07-22T14:40:16;22.40;99.90
33715;DHT22;20043;50.998;4.754;2023-07-22T14:42:42;22.40;99.90
33715;DHT22;20043;50.998;4.754;2023-07-22T14:45:08;22.30;99.90
33715;DHT22;20043;50.998;4.754;2023-07-22T14:47:33;22.30;99.90
33715;DHT22;20043;50.998;4.754;2023-07-22T14:50:00;22.30;99.90
33715;DHT22;20043;50.998;4.754;2023-07-22T14:52:26;22.30;99.90
33715;DHT22;20043;50.998;4.754;2023-07-22T14:54:52;22.20;99.90
33715;DHT22;20043;50.998;4.754;2023-07-22T14:57:17;22.10;99.90
33715;DHT22;20043;50.998;4.754;2023-07-22T14:59:43;22.00;99.90
33715;DHT22;20043;50.998;4.754;2023-07-22T15:02:09;22.00;99.90
33715;DHT22;20043;50.998;4.754;2023-07-22T15:04:34;21.90;99.90
33715;DHT22;20043;50.998;4.754;2023-07-22T15:07:00;21.90;99.90
33715;DHT22;20043;50.998;4.754;2023-07-22T15:09:25;22.00;99.90
33715;DHT22;20043;50.998;4.754;2023-07-22T15:11:51;22.10;99.90
33715;DHT22;20043;50.998;4.754;2023-07-22T15:14:18;22.10;99.90
33715;DHT22;20043;50.998;4.754;2023-07-22T15:16:43;22.30;99.90
33715;DHT22;20043;50.998;4.754;2023-07-22T15:19:09;22.30;99.90
33715;DHT22;20043;50.998;4.754;2023-07-22T15:21:35;22.30;99.90
33715;DHT22;20043;50.998;4.754;2023-07-22T15:24:01;22.40;99.90
33715;DHT22;20043;50.998;4.754;2023-07-22T15:26:26;22.40;99.90
33715;DHT22;20043;50.998;4.754;2023-07-22T15:28:53;22.40;99.90
33715;DHT22;20043;50.998;4.754;2023-07-22T15:31:19;22.50;99.90
33715;DHT22;20043;50.998;4.754;2023-07-22T15:33:45;22.60;99.90
33715;DHT22;20043;50.998;4.754;2023-07-22T15:36:11;22.80;99.90
33715;DHT22;20043;50.998;4.754;2023-07-22T15:38:36;22.90;99.90
33715;DHT22;20043;50.998;4.754;2023-07-22T15:41:02;23.00;99.90